ΕΜΥ, Εθνική Μετεωρολογική Υπηρεσία - Δελτία Καιρού, Προγνώσεις

ΑΕΡΟΝΑΥΤΙΛΙΑ

GREEK AIRPORTS CODES

LGKA 221400Z AUTO 21004KT 090V260 //// // ////// 24/07 Q1020 RE//=

EUROPEAN AIRPORTS CODES

LFPO 221430Z 21007KT 9999 SCT009 BKN018 OVC076 16/15 Q1009TEMPO BKN009=